sensor_id;sensor_type;location;lat;lon;timestamp;pressure;altitude;pressure_sealevel;temperature;humidity
80393;BME280;69719;45.544;10.218;2024-01-16T00:02:12;98857.16;;;4.45;100.00
80393;BME280;69719;45.544;10.218;2024-01-16T00:04:38;98859.34;;;4.41;100.00
80393;BME280;69719;45.544;10.218;2024-01-16T00:07:05;98853.00;;;4.44;100.00
80393;BME280;69719;45.544;10.218;2024-01-16T00:09:33;98860.16;;;4.42;100.00
80393;BME280;69719;45.544;10.218;2024-01-16T00:11:59;98855.97;;;4.41;100.00
80393;BME280;69719;45.544;10.218;2024-01-16T00:14:25;98863.09;;;4.45;100.00
80393;BME280;69719;45.544;10.218;2024-01-16T00:16:51;98865.69;;;4.32;100.00
80393;BME280;69719;45.544;10.218;2024-01-16T00:19:16;98858.97;;;4.25;100.00
80393;BME280;69719;45.544;10.218;2024-01-16T00:21:45;98865.69;;;4.26;100.00
80393;BME280;69719;45.544;10.218;2024-01-16T00:24:13;98867.66;;;4.24;100.00
80393;BME280;69719;45.544;10.218;2024-01-16T00:26:39;98874.81;;;4.41;100.00
80393;BME280;69719;45.544;10.218;2024-01-16T00:29:05;98877.16;;;4.36;100.00
80393;BME280;69719;45.544;10.218;2024-01-16T00:31:31;98872.06;;;4.17;100.00
80393;BME280;69719;45.544;10.218;2024-01-16T00:33:56;98876.78;;;4.26;100.00
80393;BME280;69719;45.544;10.218;2024-01-16T00:36:22;98878.16;;;4.09;100.00
80393;BME280;69719;45.544;10.218;2024-01-16T00:38:47;98879.53;;;3.92;100.00
80393;BME280;69719;45.544;10.218;2024-01-16T00:41:13;98890.19;;;3.63;100.00
80393;BME280;69719;45.544;10.218;2024-01-16T00:43:43;98896.59;;;4.00;100.00
80393;BME280;69719;45.544;10.218;2024-01-16T00:46:09;98901.69;;;3.73;100.00
80393;BME280;69719;45.544;10.218;2024-01-16T00:48:34;98896.72;;;3.72;100.00
80393;BME280;69719;45.544;10.218;2024-01-16T00:51:00;98902.06;;;3.70;100.00
80393;BME280;69719;45.544;10.218;2024-01-16T00:53:26;98904.88;;;3.88;100.00
80393;BME280;69719;45.544;10.218;2024-01-16T00:55:52;98915.16;;;3.88;100.00
80393;BME280;69719;45.544;10.218;2024-01-16T00:58:21;98900.50;;;3.76;100.00
80393;BME280;69719;45.544;10.218;2024-01-16T01:00:46;98906.84;;;3.80;100.00
80393;BME280;69719;45.544;10.218;2024-01-16T01:03:12;98908.00;;;3.77;100.00
80393;BME280;69719;45.544;10.218;2024-01-16T01:05:38;98909.44;;;3.93;100.00
80393;BME280;69719;45.544;10.218;2024-01-16T01:08:04;98912.03;;;4.13;100.00
80393;BME280;69719;45.544;10.218;2024-01-16T01:10:29;98911.63;;;4.09;100.00
80393;BME280;69719;45.544;10.218;2024-01-16T01:12:55;98908.03;;;3.90;100.00
80393;BME280;69719;45.544;10.218;2024-01-16T01:15:21;98911.00;;;3.87;100.00
80393;BME280;69719;45.544;10.218;2024-01-16T01:17:49;98912.97;;;3.85;100.00
80393;BME280;69719;45.544;10.218;2024-01-16T01:20:14;98920.50;;;3.80;100.00
80393;BME280;69719;45.544;10.218;2024-01-16T01:22:40;98920.09;;;3.83;100.00
80393;BME280;69719;45.544;10.218;2024-01-16T01:25:06;98935.38;;;4.05;100.00
80393;BME280;69719;45.544;10.218;2024-01-16T01:27:32;98935.75;;;3.88;100.00
80393;BME280;69719;45.544;10.218;2024-01-16T01:29:58;98943.03;;;3.85;100.00
80393;BME280;69719;45.544;10.218;2024-01-16T01:32:23;98939.63;;;3.58;100.00
80393;BME280;69719;45.544;10.218;2024-01-16T01:34:49;98944.75;;;3.58;100.00
80393;BME280;69719;45.544;10.218;2024-01-16T01:37:14;98951.22;;;3.41;100.00
80393;BME280;69719;45.544;10.218;2024-01-16T01:39:40;98960.09;;;3.39;100.00
80393;BME280;69719;45.544;10.218;2024-01-16T01:42:06;98969.81;;;3.43;100.00
80393;BME280;69719;45.544;10.218;2024-01-16T01:44:31;98966.00;;;3.33;100.00
80393;BME280;69719;45.544;10.218;2024-01-16T01:46:57;98972.44;;;3.56;100.00
80393;BME280;69719;45.544;10.218;2024-01-16T01:49:25;98972.44;;;3.56;100.00
80393;BME280;69719;45.544;10.218;2024-01-16T01:51:51;98964.97;;;3.61;100.00
80393;BME280;69719;45.544;10.218;2024-01-16T01:54:18;98975.66;;;3.71;100.00
80393;BME280;69719;45.544;10.218;2024-01-16T01:56:46;98986.41;;;3.88;100.00
80393;BME280;69719;45.544;10.218;2024-01-16T01:59:13;98979.00;;;3.65;100.00
80393;BME280;69719;45.544;10.218;2024-01-16T02:01:41;98982.97;;;3.61;100.00
80393;BME280;69719;45.544;10.218;2024-01-16T02:04:08;98984.16;;;3.65;100.00
80393;BME280;69719;45.544;10.218;2024-01-16T02:06:34;98986.91;;;3.64;100.00
80393;BME280;69719;45.544;10.218;2024-01-16T02:09:00;98988.56;;;3.78;100.00
80393;BME280;69719;45.544;10.218;2024-01-16T02:11:26;98990.88;;;3.66;100.00
80393;BME280;69719;45.544;10.218;2024-01-16T02:13:51;98993.38;;;3.53;100.00
80393;BME280;69719;45.544;10.218;2024-01-16T02:16:21;98999.81;;;3.77;100.00
80393;BME280;69719;45.544;10.218;2024-01-16T02:18:47;99004.94;;;3.70;100.00
80393;BME280;69719;45.544;10.218;2024-01-16T02:21:26;99002.66;;;3.88;100.00
80393;BME280;69719;45.544;10.218;2024-01-16T02:23:53;99003.75;;;3.73;100.00
80393;BME280;69719;45.544;10.218;2024-01-16T02:26:19;99009.09;;;3.71;100.00
80393;BME280;69719;45.544;10.218;2024-01-16T02:28:45;99006.00;;;3.82;100.00
80393;BME280;69719;45.544;10.218;2024-01-16T02:31:10;99014.78;;;3.60;100.00
80393;BME280;69719;45.544;10.218;2024-01-16T02:33:36;99017.81;;;3.77;100.00
80393;BME280;69719;45.544;10.218;2024-01-16T02:36:02;99017.47;;;3.86;100.00
80393;BME280;69719;45.544;10.218;2024-01-16T02:38:27;99019.50;;;3.98;100.00
80393;BME280;69719;45.544;10.218;2024-01-16T02:40:53;99020.00;;;3.73;100.00
80393;BME280;69719;45.544;10.218;2024-01-16T02:43:18;99023.13;;;3.69;100.00
80393;BME280;69719;45.544;10.218;2024-01-16T02:45:43;99034.22;;;3.69;100.00
80393;BME280;69719;45.544;10.218;2024-01-16T02:48:09;99030.59;;;3.57;100.00
80393;BME280;69719;45.544;10.218;2024-01-16T02:50:35;99030.38;;;3.52;100.00
80393;BME280;69719;45.544;10.218;2024-01-16T02:53:00;99032.03;;;3.66;100.00
80393;BME280;69719;45.544;10.218;2024-01-16T02:55:28;99038.94;;;3.66;100.00
80393;BME280;69719;45.544;10.218;2024-01-16T02:57:54;99043.16;;;3.73;100.00
80393;BME280;69719;45.544;10.218;2024-01-16T03:00:20;99044.75;;;3.81;100.00
80393;BME280;69719;45.544;10.218;2024-01-16T03:02:45;99048.19;;;3.95;100.00
80393;BME280;69719;45.544;10.218;2024-01-16T03:05:11;99048.97;;;3.88;100.00
80393;BME280;69719;45.544;10.218;2024-01-16T03:07:36;99058.03;;;3.84;100.00
80393;BME280;69719;45.544;10.218;2024-01-16T03:10:02;99064.16;;;3.83;100.00
80393;BME280;69719;45.544;10.218;2024-01-16T03:12:28;99067.94;;;3.87;100.00
80393;BME280;69719;45.544;10.218;2024-01-16T03:14:54;99066.31;;;3.73;100.00
80393;BME280;69719;45.544;10.218;2024-01-16T03:17:19;99072.97;;;3.68;100.00
80393;BME280;69719;45.544;10.218;2024-01-16T03:19:45;99073.75;;;3.62;100.00
80393;BME280;69719;45.544;10.218;2024-01-16T03:22:10;99084.50;;;3.72;100.00
80393;BME280;69719;45.544;10.218;2024-01-16T03:24:36;99076.91;;;3.64;100.00
80393;BME280;69719;45.544;10.218;2024-01-16T03:27:01;99087.94;;;3.51;100.00
80393;BME280;69719;45.544;10.218;2024-01-16T03:29:27;99089.53;;;3.52;100.00
80393;BME280;69719;45.544;10.218;2024-01-16T03:31:53;99078.16;;;3.74;100.00
80393;BME280;69719;45.544;10.218;2024-01-16T03:34:18;99080.97;;;3.79;100.00
80393;BME280;69719;45.544;10.218;2024-01-16T03:36:44;99079.72;;;3.69;100.00
80393;BME280;69719;45.544;10.218;2024-01-16T03:39:10;99080.13;;;3.72;100.00
80393;BME280;69719;45.544;10.218;2024-01-16T03:41:35;99086.47;;;3.70;100.00
80393;BME280;69719;45.544;10.218;2024-01-16T03:44:00;99090.13;;;3.88;100.00
80393;BME280;69719;45.544;10.218;2024-01-16T03:46:26;99086.13;;;3.79;100.00
80393;BME280;69719;45.544;10.218;2024-01-16T03:48:51;99087.63;;;3.67;100.00
80393;BME280;69719;45.544;10.218;2024-01-16T03:51:17;99096.19;;;3.47;100.00
80393;BME280;69719;45.544;10.218;2024-01-16T03:53:45;99090.88;;;3.48;100.00
80393;BME280;69719;45.544;10.218;2024-01-16T03:56:10;99093.03;;;3.45;100.00
80393;BME280;69719;45.544;10.218;2024-01-16T03:58:35;99098.78;;;3.47;100.00
80393;BME280;69719;45.544;10.218;2024-01-16T04:01:01;99088.53;;;3.53;100.00
80393;BME280;69719;45.544;10.218;2024-01-16T04:03:26;99098.66;;;3.55;100.00
80393;BME280;69719;45.544;10.218;2024-01-16T04:05:52;99101.34;;;3.81;100.00
80393;BME280;69719;45.544;10.218;2024-01-16T04:08:17;99097.81;;;3.82;100.00
80393;BME280;69719;45.544;10.218;2024-01-16T04:10:43;99095.81;;;3.77;100.00
80393;BME280;69719;45.544;10.218;2024-01-16T04:13:08;99093.34;;;3.63;100.00
80393;BME280;69719;45.544;10.218;2024-01-16T04:15:37;99096.59;;;3.78;100.00
80393;BME280;69719;45.544;10.218;2024-01-16T04:18:03;99094.56;;;3.67;100.00
80393;BME280;69719;45.544;10.218;2024-01-16T04:20:28;99103.88;;;3.74;100.00
80393;BME280;69719;45.544;10.218;2024-01-16T04:22:54;99113.72;;;3.64;100.00
80393;BME280;69719;45.544;10.218;2024-01-16T04:25:20;99116.97;;;3.79;100.00
80393;BME280;69719;45.544;10.218;2024-01-16T04:27:45;99110.28;;;3.85;100.00
80393;BME280;69719;45.544;10.218;2024-01-16T04:30:11;99111.75;;;3.66;100.00
80393;BME280;69719;45.544;10.218;2024-01-16T04:32:37;99117.66;;;3.60;100.00
80393;BME280;69719;45.544;10.218;2024-01-16T04:35:03;99116.38;;;3.77;100.00
80393;BME280;69719;45.544;10.218;2024-01-16T04:37:28;99115.00;;;3.81;100.00
80393;BME280;69719;45.544;10.218;2024-01-16T04:39:54;99116.53;;;3.69;100.00
80393;BME280;69719;45.544;10.218;2024-01-16T04:42:19;99118.09;;;3.70;100.00
80393;BME280;69719;45.544;10.218;2024-01-16T04:44:45;99114.56;;;3.71;100.00
80393;BME280;69719;45.544;10.218;2024-01-16T04:47:11;99116.16;;;3.72;100.00
80393;BME280;69719;45.544;10.218;2024-01-16T04:49:37;99108.91;;;3.82;100.00
80393;BME280;69719;45.544;10.218;2024-01-16T04:52:02;99109.13;;;3.94;100.00
80393;BME280;69719;45.544;10.218;2024-01-16T04:54:28;99124.63;;;4.01;100.00
80393;BME280;69719;45.544;10.218;2024-01-16T04:56:54;99133.53;;;4.05;100.00
80393;BME280;69719;45.544;10.218;2024-01-16T04:59:19;99132.19;;;4.15;100.00
80393;BME280;69719;45.544;10.218;2024-01-16T05:01:45;99135.09;;;3.99;100.00
80393;BME280;69719;45.544;10.218;2024-01-16T05:04:11;99131.63;;;4.20;100.00
80393;BME280;69719;45.544;10.218;2024-01-16T05:06:36;99135.97;;;4.13;100.00
80393;BME280;69719;45.544;10.218;2024-01-16T05:09:02;99131.00;;;4.11;100.00
80393;BME280;69719;45.544;10.218;2024-01-16T05:11:28;99139.72;;;4.10;100.00
80393;BME280;69719;45.544;10.218;2024-01-16T05:13:54;99142.94;;;4.19;100.00
80393;BME280;69719;45.544;10.218;2024-01-16T05:16:26;99137.38;;;4.22;100.00
80393;BME280;69719;45.544;10.218;2024-01-16T05:18:53;99142.78;;;3.92;100.00
80393;BME280;69719;45.544;10.218;2024-01-16T05:21:19;99150.75;;;3.98;100.00
80393;BME280;69719;45.544;10.218;2024-01-16T05:23:45;99146.41;;;4.05;100.00
80393;BME280;69719;45.544;10.218;2024-01-16T05:26:10;99160.59;;;3.94;100.00
80393;BME280;69719;45.544;10.218;2024-01-16T05:28:36;99159.03;;;3.93;100.00
80393;BME280;69719;45.544;10.218;2024-01-16T05:31:01;99140.47;;;4.04;100.00
80393;BME280;69719;45.544;10.218;2024-01-16T05:33:27;99137.88;;;3.98;100.00
80393;BME280;69719;45.544;10.218;2024-01-16T05:35:53;99145.63;;;4.04;100.00
80393;BME280;69719;45.544;10.218;2024-01-16T05:38:18;99146.63;;;4.10;100.00
80393;BME280;69719;45.544;10.218;2024-01-16T05:40:43;99164.59;;;3.97;100.00
80393;BME280;69719;45.544;10.218;2024-01-16T05:43:09;99174.94;;;4.10;100.00
80393;BME280;69719;45.544;10.218;2024-01-16T05:45:34;99174.22;;;4.22;100.00
80393;BME280;69719;45.544;10.218;2024-01-16T05:48:00;99173.00;;;4.18;100.00
80393;BME280;69719;45.544;10.218;2024-01-16T05:50:25;99175.19;;;4.15;100.00
80393;BME280;69719;45.544;10.218;2024-01-16T05:52:51;99190.03;;;4.13;100.00
80393;BME280;69719;45.544;10.218;2024-01-16T05:55:16;99189.00;;;4.07;100.00
80393;BME280;69719;45.544;10.218;2024-01-16T05:57:42;99185.03;;;4.11;100.00
80393;BME280;69719;45.544;10.218;2024-01-16T06:00:09;99185.31;;;4.23;100.00
80393;BME280;69719;45.544;10.218;2024-01-16T06:02:35;99193.00;;;4.16;100.00
80393;BME280;69719;45.544;10.218;2024-01-16T06:05:00;99194.34;;;4.06;100.00
80393;BME280;69719;45.544;10.218;2024-01-16T06:07:26;99196.63;;;3.94;100.00
80393;BME280;69719;45.544;10.218;2024-01-16T06:09:51;99201.28;;;3.77;100.00
80393;BME280;69719;45.544;10.218;2024-01-16T06:12:17;99208.03;;;3.78;100.00
80393;BME280;69719;45.544;10.218;2024-01-16T06:14:42;99206.75;;;3.96;100.00
80393;BME280;69719;45.544;10.218;2024-01-16T06:17:08;99205.34;;;3.93;100.00
80393;BME280;69719;45.544;10.218;2024-01-16T06:19:33;99210.75;;;3.77;100.00
80393;BME280;69719;45.544;10.218;2024-01-16T06:21:59;99217.41;;;3.65;100.00
80393;BME280;69719;45.544;10.218;2024-01-16T06:24:25;99223.00;;;4.03;100.00
80393;BME280;69719;45.544;10.218;2024-01-16T06:26:51;99224.47;;;4.12;100.00
80393;BME280;69719;45.544;10.218;2024-01-16T06:29:16;99225.97;;;4.00;100.00
80393;BME280;69719;45.544;10.218;2024-01-16T06:31:42;99223.25;;;4.08;100.00
80393;BME280;69719;45.544;10.218;2024-01-16T06:34:07;99220.56;;;4.22;100.00
80393;BME280;69719;45.544;10.218;2024-01-16T06:36:34;99229.59;;;4.12;100.00
80393;BME280;69719;45.544;10.218;2024-01-16T06:38:59;99229.66;;;4.18;100.00
80393;BME280;69719;45.544;10.218;2024-01-16T06:41:25;99235.72;;;4.11;100.00
80393;BME280;69719;45.544;10.218;2024-01-16T06:43:50;99228.34;;;4.01;100.00
80393;BME280;69719;45.544;10.218;2024-01-16T06:46:15;99239.84;;;4.05;100.00
80393;BME280;69719;45.544;10.218;2024-01-16T06:48:41;99237.47;;;4.04;100.00
80393;BME280;69719;45.544;10.218;2024-01-16T06:51:06;99241.88;;;4.10;100.00
80393;BME280;69719;45.544;10.218;2024-01-16T06:53:33;99250.69;;;4.28;100.00
80393;BME280;69719;45.544;10.218;2024-01-16T06:55:58;99254.31;;;4.34;100.00
80393;BME280;69719;45.544;10.218;2024-01-16T06:58:24;99247.50;;;4.26;100.00
80393;BME280;69719;45.544;10.218;2024-01-16T07:00:49;99255.25;;;4.26;100.00
80393;BME280;69719;45.544;10.218;2024-01-16T07:03:15;99263.16;;;4.25;100.00
80393;BME280;69719;45.544;10.218;2024-01-16T07:05:41;99266.91;;;4.22;100.00
80393;BME280;69719;45.544;10.218;2024-01-16T07:08:07;99267.25;;;4.19;100.00
80393;BME280;69719;45.544;10.218;2024-01-16T07:10:33;99267.66;;;4.16;100.00
80393;BME280;69719;45.544;10.218;2024-01-16T07:12:59;99275.19;;;4.18;100.00
80393;BME280;69719;45.544;10.218;2024-01-16T07:15:25;99273.91;;;4.07;100.00
80393;BME280;69719;45.544;10.218;2024-01-16T07:17:50;99284.97;;;4.01;100.00
80393;BME280;69719;45.544;10.218;2024-01-16T07:20:16;99278.31;;;4.13;100.00
80393;BME280;69719;45.544;10.218;2024-01-16T07:22:41;99284.31;;;4.20;100.00
80393;BME280;69719;45.544;10.218;2024-01-16T07:25:07;99286.78;;;4.07;100.00
80393;BME280;69719;45.544;10.218;2024-01-16T07:27:33;99297.28;;;4.06;100.00
80393;BME280;69719;45.544;10.218;2024-01-16T07:29:59;99309.50;;;3.97;100.00
80393;BME280;69719;45.544;10.218;2024-01-16T07:32:25;99314.78;;;3.89;100.00
80393;BME280;69719;45.544;10.218;2024-01-16T07:34:50;99314.94;;;3.87;100.00
80393;BME280;69719;45.544;10.218;2024-01-16T07:37:18;99324.88;;;3.90;100.00
80393;BME280;69719;45.544;10.218;2024-01-16T07:39:43;99325.53;;;3.99;100.00
80393;BME280;69719;45.544;10.218;2024-01-16T07:42:09;99340.72;;;3.94;100.00
80393;BME280;69719;45.544;10.218;2024-01-16T07:44:35;99346.25;;;4.12;100.00
80393;BME280;69719;45.544;10.218;2024-01-16T07:47:00;99341.97;;;4.26;100.00
80393;BME280;69719;45.544;10.218;2024-01-16T07:49:26;99344.94;;;4.23;100.00
80393;BME280;69719;45.544;10.218;2024-01-16T07:51:51;99350.09;;;4.23;100.00
80393;BME280;69719;45.544;10.218;2024-01-16T07:54:17;99352.00;;;4.14;100.00
80393;BME280;69719;45.544;10.218;2024-01-16T07:56:42;99344.84;;;4.10;100.00
80393;BME280;69719;45.544;10.218;2024-01-16T07:59:08;99355.72;;;4.12;100.00
80393;BME280;69719;45.544;10.218;2024-01-16T08:01:34;99358.00;;;4.21;100.00
80393;BME280;69719;45.544;10.218;2024-01-16T08:03:59;99351.81;;;4.16;100.00
80393;BME280;69719;45.544;10.218;2024-01-16T08:06:26;99363.09;;;4.15;100.00
80393;BME280;69719;45.544;10.218;2024-01-16T08:08:52;99354.47;;;4.29;100.00
80393;BME280;69719;45.544;10.218;2024-01-16T08:11:19;99346.50;;;4.24;100.00
80393;BME280;69719;45.544;10.218;2024-01-16T08:13:44;99361.31;;;4.43;100.00
80393;BME280;69719;45.544;10.218;2024-01-16T08:16:10;99359.19;;;4.46;100.00
80393;BME280;69719;45.544;10.218;2024-01-16T08:18:36;99373.31;;;4.57;100.00
80393;BME280;69719;45.544;10.218;2024-01-16T08:21:02;99376.09;;;4.62;100.00
80393;BME280;69719;45.544;10.218;2024-01-16T08:23:27;99389.94;;;4.54;100.00
80393;BME280;69719;45.544;10.218;2024-01-16T08:25:53;99396.66;;;4.49;100.00
80393;BME280;69719;45.544;10.218;2024-01-16T08:28:18;99397.94;;;4.66;100.00
80393;BME280;69719;45.544;10.218;2024-01-16T08:30:44;99393.41;;;4.68;100.00
80393;BME280;69719;45.544;10.218;2024-01-16T08:33:10;99397.59;;;4.76;100.00
80393;BME280;69719;45.544;10.218;2024-01-16T08:35:35;99404.31;;;4.70;100.00
80393;BME280;69719;45.544;10.218;2024-01-16T08:38:01;99423.31;;;4.69;100.00
80393;BME280;69719;45.544;10.218;2024-01-16T08:40:26;99424.25;;;4.89;100.00
80393;BME280;69719;45.544;10.218;2024-01-16T08:42:52;99431.72;;;4.78;100.00
80393;BME280;69719;45.544;10.218;2024-01-16T08:45:23;99432.50;;;4.78;100.00
80393;BME280;69719;45.544;10.218;2024-01-16T08:47:49;99434.78;;;4.66;100.00
80393;BME280;69719;45.544;10.218;2024-01-16T08:50:15;99431.19;;;4.61;100.00
80393;BME280;69719;45.544;10.218;2024-01-16T08:52:41;99439.47;;;4.56;100.00
80393;BME280;69719;45.544;10.218;2024-01-16T08:55:07;99437.97;;;4.68;100.00
80393;BME280;69719;45.544;10.218;2024-01-16T08:57:34;99439.03;;;4.74;100.00
80393;BME280;69719;45.544;10.218;2024-01-16T08:59:59;99441.81;;;4.79;100.00
80393;BME280;69719;45.544;10.218;2024-01-16T09:02:25;99438.63;;;4.77;100.00
80393;BME280;69719;45.544;10.218;2024-01-16T09:04:54;99430.03;;;4.63;100.00
80393;BME280;69719;45.544;10.218;2024-01-16T09:07:20;99429.38;;;4.83;100.00
80393;BME280;69719;45.544;10.218;2024-01-16T09:09:45;99432.44;;;4.99;100.00
80393;BME280;69719;45.544;10.218;2024-01-16T09:12:11;99431.31;;;5.08;100.00
80393;BME280;69719;45.544;10.218;2024-01-16T09:14:37;99428.50;;;5.03;100.00
80393;BME280;69719;45.544;10.218;2024-01-16T09:17:03;99437.16;;;5.23;100.00
80393;BME280;69719;45.544;10.218;2024-01-16T09:19:29;99443.94;;;5.37;100.00
80393;BME280;69719;45.544;10.218;2024-01-16T09:21:55;99445.59;;;5.45;100.00
80393;BME280;69719;45.544;10.218;2024-01-16T09:24:21;99447.53;;;5.36;100.00
80393;BME280;69719;45.544;10.218;2024-01-16T09:26:47;99447.53;;;5.36;100.00
80393;BME280;69719;45.544;10.218;2024-01-16T09:29:13;99456.53;;;5.54;100.00
80393;BME280;69719;45.544;10.218;2024-01-16T09:31:43;99453.69;;;5.42;100.00
80393;BME280;69719;45.544;10.218;2024-01-16T09:34:08;99457.44;;;5.39;100.00
80393;BME280;69719;45.544;10.218;2024-01-16T09:36:34;99462.69;;;5.53;100.00
80393;BME280;69719;45.544;10.218;2024-01-16T09:39:04;99468.91;;;5.71;100.00
80393;BME280;69719;45.544;10.218;2024-01-16T09:41:34;99466.53;;;5.70;100.00
80393;BME280;69719;45.544;10.218;2024-01-16T09:43:59;99467.06;;;5.59;100.00
80393;BME280;69719;45.544;10.218;2024-01-16T09:46:25;99460.56;;;5.69;100.00
80393;BME280;69719;45.544;10.218;2024-01-16T09:48:54;99462.84;;;5.85;100.00
80393;BME280;69719;45.544;10.218;2024-01-16T09:51:21;99459.69;;;5.90;100.00
80393;BME280;69719;45.544;10.218;2024-01-16T09:53:46;99454.97;;;6.13;100.00
80393;BME280;69719;45.544;10.218;2024-01-16T09:56:16;99450.59;;;6.20;100.00
80393;BME280;69719;45.544;10.218;2024-01-16T09:58:43;99456.19;;;6.30;100.00
80393;BME280;69719;45.544;10.218;2024-01-16T10:04:31;99461.16;;;6.38;100.00
80393;BME280;69719;45.544;10.218;2024-01-16T10:06:58;99463.34;;;6.35;100.00
80393;BME280;69719;45.544;10.218;2024-01-16T10:09:23;99463.94;;;6.69;100.00
80393;BME280;69719;45.544;10.218;2024-01-16T10:11:50;99455.78;;;6.66;100.00
80393;BME280;69719;45.544;10.218;2024-01-16T10:14:17;99456.38;;;6.74;97.48
80393;BME280;69719;45.544;10.218;2024-01-16T10:16:58;99441.66;;;6.75;97.96
80393;BME280;69719;45.544;10.218;2024-01-16T10:19:27;99450.59;;;6.85;98.23
80393;BME280;69719;45.544;10.218;2024-01-16T10:22:01;99441.81;;;7.13;97.81
80393;BME280;69719;45.544;10.218;2024-01-16T10:24:27;99446.59;;;7.16;96.97
80393;BME280;69719;45.544;10.218;2024-01-16T10:27:00;99450.56;;;7.18;97.90
80393;BME280;69719;45.544;10.218;2024-01-16T10:29:26;99449.91;;;7.36;96.18
80393;BME280;69719;45.544;10.218;2024-01-16T10:32:10;99447.47;;;7.47;96.46
80393;BME280;69719;45.544;10.218;2024-01-16T10:34:36;99460.50;;;7.15;92.67
80393;BME280;69719;45.544;10.218;2024-01-16T10:37:01;99453.75;;;7.14;93.78
80393;BME280;69719;45.544;10.218;2024-01-16T10:39:27;99464.28;;;7.19;94.12
80393;BME280;69719;45.544;10.218;2024-01-16T10:42:00;99461.22;;;7.48;94.93
80393;BME280;69719;45.544;10.218;2024-01-16T10:44:25;99459.75;;;7.65;95.01
80393;BME280;69719;45.544;10.218;2024-01-16T10:47:09;99454.72;;;7.76;92.95
80393;BME280;69719;45.544;10.218;2024-01-16T10:49:36;99455.22;;;7.54;96.78
80393;BME280;69719;45.544;10.218;2024-01-16T10:52:01;99460.44;;;7.41;94.35
80393;BME280;69719;45.544;10.218;2024-01-16T10:54:27;99470.34;;;7.57;95.33
80393;BME280;69719;45.544;10.218;2024-01-16T10:56:54;99463.09;;;7.72;94.56
80393;BME280;69719;45.544;10.218;2024-01-16T10:59:24;99462.72;;;7.68;92.13
80393;BME280;69719;45.544;10.218;2024-01-16T11:01:54;99459.25;;;7.37;93.61
80393;BME280;69719;45.544;10.218;2024-01-16T11:04:22;99467.94;;;7.62;93.72
80393;BME280;69719;45.544;10.218;2024-01-16T11:06:51;99462.28;;;7.21;97.82
80393;BME280;69719;45.544;10.218;2024-01-16T11:09:17;99466.06;;;7.25;99.37
80393;BME280;69719;45.544;10.218;2024-01-16T11:11:46;99467.66;;;7.13;99.16
80393;BME280;69719;45.544;10.218;2024-01-16T11:14:16;99470.47;;;7.05;100.00
80393;BME280;69719;45.544;10.218;2024-01-16T11:16:43;99476.44;;;7.12;100.00
80393;BME280;69719;45.544;10.218;2024-01-16T11:19:12;99478.81;;;7.13;100.00
80393;BME280;69719;45.544;10.218;2024-01-16T11:21:39;99474.84;;;7.04;100.00
80393;BME280;69719;45.544;10.218;2024-01-16T11:24:05;99479.41;;;7.15;100.00
80393;BME280;69719;45.544;10.218;2024-01-16T11:26:33;99485.19;;;7.17;100.00
80393;BME280;69719;45.544;10.218;2024-01-16T11:31:54;99463.81;;;7.48;99.61
80393;BME280;69719;45.544;10.218;2024-01-16T11:37:08;99477.19;;;7.32;99.87
80393;BME280;69719;45.544;10.218;2024-01-16T11:39:35;99465.81;;;7.39;100.00
80393;BME280;69719;45.544;10.218;2024-01-16T11:42:01;99462.03;;;7.48;100.00
80393;BME280;69719;45.544;10.218;2024-01-16T11:47:07;99463.63;;;7.43;99.58
80393;BME280;69719;45.544;10.218;2024-01-16T11:49:36;99465.03;;;7.39;100.00
80393;BME280;69719;45.544;10.218;2024-01-16T11:52:02;99468.75;;;7.56;100.00
80393;BME280;69719;45.544;10.218;2024-01-16T11:54:28;99461.34;;;7.66;100.00
80393;BME280;69719;45.544;10.218;2024-01-16T12:02:52;99455.56;;;7.64;94.92
80393;BME280;69719;45.544;10.218;2024-01-16T12:05:19;99465.63;;;7.85;97.04
80393;BME280;69719;45.544;10.218;2024-01-16T12:07:46;99463.88;;;7.79;97.68
80393;BME280;69719;45.544;10.218;2024-01-16T12:10:15;99456.63;;;7.94;98.75
80393;BME280;69719;45.544;10.218;2024-01-16T12:12:41;99454.84;;;7.95;95.28
80393;BME280;69719;45.544;10.218;2024-01-16T12:15:20;99447.94;;;7.82;97.23
80393;BME280;69719;45.544;10.218;2024-01-16T12:20:21;99433.53;;;7.93;93.54
80393;BME280;69719;45.544;10.218;2024-01-16T12:23:00;99435.81;;;8.07;94.13
80393;BME280;69719;45.544;10.218;2024-01-16T12:25:27;99430.66;;;8.07;91.88
80393;BME280;69719;45.544;10.218;2024-01-16T12:28:01;99429.03;;;8.06;91.83
80393;BME280;69719;45.544;10.218;2024-01-16T12:30:29;99432.25;;;8.08;85.71
80393;BME280;69719;45.544;10.218;2024-01-16T12:33:05;99424.31;;;8.34;89.07
80393;BME280;69719;45.544;10.218;2024-01-16T12:35:41;99429.38;;;8.47;90.41
80393;BME280;69719;45.544;10.218;2024-01-16T12:38:12;99426.28;;;8.64;88.88
80393;BME280;69719;45.544;10.218;2024-01-16T12:40:44;99421.88;;;8.64;88.47
80393;BME280;69719;45.544;10.218;2024-01-16T12:43:11;99421.44;;;8.67;89.23
80393;BME280;69719;45.544;10.218;2024-01-16T12:45:37;99418.69;;;8.62;89.45
80393;BME280;69719;45.544;10.218;2024-01-16T12:48:04;99413.97;;;8.77;88.51
80393;BME280;69719;45.544;10.218;2024-01-16T12:50:31;99403.78;;;8.57;90.84
80393;BME280;69719;45.544;10.218;2024-01-16T12:53:03;99402.41;;;8.55;93.61
80393;BME280;69719;45.544;10.218;2024-01-16T12:55:30;99395.94;;;8.64;96.04
80393;BME280;69719;45.544;10.218;2024-01-16T13:00:41;99393.25;;;8.52;97.23
80393;BME280;69719;45.544;10.218;2024-01-16T13:03:07;99392.41;;;8.59;97.87
80393;BME280;69719;45.544;10.218;2024-01-16T13:05:32;99377.66;;;8.59;97.23
80393;BME280;69719;45.544;10.218;2024-01-16T13:08:02;99374.03;;;8.60;98.13
80393;BME280;69719;45.544;10.218;2024-01-16T13:10:31;99368.06;;;8.60;98.96
80393;BME280;69719;45.544;10.218;2024-01-16T13:13:16;99365.78;;;8.70;98.96